Time;durP1;ratioP1;P1;durP2;ratioP2;P2;SDS_P1;SDS_P2;PMS_P1;PMS_P2;Temp;Humidity;BMP_temperature;BMP_pressure;BME280_temperature;BME280_humidity;BME280_pressure;Samples;Min_cycle;Max_cycle;Signal;HPM_P1;HPM_P2
2021/04/23 00:01:14;;;;;;;3.92;2.00;;;3.20;99.90;;;;;;4987980;28;20034;-90
2021/04/23 00:03:57;;;;;;;4.38;1.60;;;3.10;99.90;;;;;;4973542;28;20129;-92
2021/04/23 00:06:34;;;;;;;9.77;1.83;;;3.20;99.90;;;;;;4962154;28;20171;-92
2021/04/23 00:09:12;;;;;;;2.85;1.55;;;3.20;99.90;;;;;;4974107;28;20027;-91
2021/04/23 00:11:45;;;;;;;5.15;1.80;;;3.20;99.90;;;;;;4976660;28;20066;-91
2021/04/23 00:14:12;;;;;;;6.25;2.30;;;3.20;99.90;;;;;;4990571;28;20023;-92
2021/04/23 00:16:38;;;;;;;6.35;1.90;;;3.10;99.90;;;;;;4962777;28;20030;-92
2021/04/23 00:19:06;;;;;;;3.80;1.52;;;3.10;99.90;;;;;;4973175;28;20070;-91
2021/04/23 00:21:32;;;;;;;3.67;1.83;;;3.10;99.90;;;;;;4969415;28;20031;-92
2021/04/23 00:23:58;;;;;;;5.55;1.98;;;3.00;99.90;;;;;;4973654;28;20041;-92
2021/04/23 00:26:24;;;;;;;10.95;2.10;;;3.00;99.90;;;;;;4971679;28;20027;-91
2021/04/23 00:28:50;;;;;;;3.00;1.73;;;3.00;99.90;;;;;;4973445;28;20035;-91
2021/04/23 00:31:16;;;;;;;5.57;1.98;;;3.00;99.90;;;;;;4956499;28;20035;-91
2021/04/23 00:33:42;;;;;;;5.47;2.67;;;3.00;99.90;;;;;;4970048;28;20078;-92
2021/04/23 00:36:09;;;;;;;7.97;1.85;;;2.90;99.90;;;;;;4964789;28;20393;-92
2021/04/23 00:38:36;;;;;;;3.33;1.65;;;2.90;99.90;;;;;;4990188;28;20552;-92
2021/04/23 00:41:14;;;;;;;5.40;2.03;;;2.80;99.90;;;;;;4988780;28;20110;-92
2021/04/23 00:43:43;;;;;;;6.07;2.50;;;2.70;99.90;;;;;;4970277;28;20039;-91
2021/04/23 00:46:10;;;;;;;7.95;2.00;;;2.70;99.90;;;;;;4977902;28;20486;-91
2021/04/23 00:48:45;;;;;;;6.95;1.83;;;2.70;99.90;;;;;;4971863;28;20066;-91
2021/04/23 00:51:16;;;;;;;;;;;2.70;99.90;;;;;;4963961;28;20628;-89
2021/04/23 00:53:46;;;;;;;8.35;1.83;;;2.70;99.90;;;;;;4972836;28;19909;-91
2021/04/23 00:56:16;;;;;;;6.70;2.03;;;2.80;99.90;;;;;;4989276;28;20038;-91
2021/04/23 00:58:42;;;;;;;5.82;2.80;;;2.80;99.90;;;;;;4971610;28;20030;-92
2021/04/23 01:01:38;;;;;;;5.25;1.75;;;2.80;99.90;;;;;;4970097;28;20035;-91
2021/04/23 01:04:07;;;;;;;6.25;1.88;;;2.70;99.90;;;;;;4955569;28;20049;-91
2021/04/23 01:06:34;;;;;;;5.65;2.15;;;2.60;99.90;;;;;;4987250;28;20039;-89
2021/04/23 01:09:08;;;;;;;5.00;1.83;;;2.60;99.90;;;;;;4988658;28;20422;-89
2021/04/23 01:11:33;;;;;;;5.18;2.03;;;2.60;99.90;;;;;;4967682;28;20061;-91
2021/04/23 01:13:59;;;;;;;6.85;2.40;;;2.50;99.90;;;;;;4981832;28;20534;-92
2021/04/23 01:16:25;;;;;;;4.38;2.35;;;2.40;99.90;;;;;;4980867;28;20053;-92
2021/04/23 01:18:53;;;;;;;3.00;1.67;;;2.40;99.90;;;;;;4971106;28;20039;-91
2021/04/23 01:21:31;;;;;;;6.15;2.10;;;2.30;99.90;;;;;;4980194;28;20039;-92
2021/04/23 01:23:59;;;;;;;4.47;1.65;;;2.30;99.90;;;;;;4968894;28;20042;-91
2021/04/23 01:26:31;;;;;;;4.88;2.20;;;2.30;99.90;;;;;;4978155;28;20713;-90
2021/04/23 01:28:57;;;;;;;5.50;1.95;;;2.20;99.90;;;;;;4973797;28;20062;-92
2021/04/23 01:31:26;;;;;;;8.02;2.47;;;2.20;99.90;;;;;;4980232;28;20593;-91
2021/04/23 01:33:57;;;;;;;7.95;2.60;;;2.20;99.90;;;;;;4988069;28;20042;-90
2021/04/23 01:36:23;;;;;;;7.47;2.50;;;2.20;99.90;;;;;;4972595;28;20121;-90
2021/04/23 01:38:49;;;;;;;6.63;2.17;;;2.10;99.90;;;;;;4987094;28;20023;-91
2021/04/23 01:41:16;;;;;;;3.05;1.65;;;2.10;99.90;;;;;;4987933;28;20039;-91
2021/04/23 01:43:42;;;;;;;8.02;1.92;;;2.10;99.90;;;;;;4968806;28;20505;-92
2021/04/23 01:46:09;;;;;;;4.97;1.70;;;2.10;99.90;;;;;;4986520;28;20062;-92
2021/04/23 01:48:36;;;;;;;4.55;1.90;;;2.00;99.90;;;;;;4967899;28;20035;-89
2021/04/23 01:51:06;;;;;;;3.88;1.73;;;2.00;99.90;;;;;;4971486;28;20413;-91
2021/04/23 01:53:31;;;;;;;6.80;2.00;;;1.90;99.90;;;;;;4984674;28;20122;-91
2021/04/23 01:55:58;;;;;;;4.43;2.00;;;1.90;99.90;;;;;;4955115;28;20479;-91
2021/04/23 01:58:24;;;;;;;7.40;1.90;;;1.80;99.90;;;;;;4987407;28;20034;-90
2021/04/23 02:00:51;;;;;;;3.75;2.10;;;1.80;99.90;;;;;;4991434;28;20034;-91
2021/04/23 02:03:22;;;;;;;3.72;1.70;;;1.80;99.90;;;;;;4970660;28;20454;-90
2021/04/23 02:05:50;;;;;;;4.95;1.73;;;1.80;99.90;;;;;;4943388;28;20034;-91
2021/04/23 02:08:23;;;;;;;4.25;2.15;;;1.70;99.90;;;;;;4994838;28;20034;-89
2021/04/23 02:10:54;;;;;;;4.50;2.33;;;1.70;99.90;;;;;;4987523;28;20486;-90
2021/04/23 02:13:23;;;;;;;4.93;1.70;;;1.60;99.90;;;;;;4984564;28;20149;-90
2021/04/23 02:15:49;;;;;;;5.53;2.20;;;1.60;99.90;;;;;;4971657;28;20031;-91
2021/04/23 02:18:15;;;;;;;5.68;2.10;;;1.60;99.90;;;;;;4970778;28;20474;-91
2021/04/23 02:20:41;;;;;;;5.75;1.90;;;1.60;99.90;;;;;;4986704;28;20042;-91
2021/04/23 02:23:11;;;;;;;2.85;1.77;;;1.60;99.90;;;;;;4992107;28;20130;-91
2021/04/23 02:25:38;;;;;;;3.42;1.58;;;1.60;99.90;;;;;;4968592;28;20038;-91
2021/04/23 02:28:06;;;;;;;3.47;1.75;;;1.60;99.90;;;;;;4980575;28;20031;-91
2021/04/23 02:30:35;;;;;;;4.35;1.80;;;1.60;99.90;;;;;;4971118;28;20034;-91
2021/04/23 02:33:02;;;;;;;4.45;1.67;;;1.60;99.90;;;;;;4972083;28;20042;-90
2021/04/23 02:35:28;;;;;;;2.38;1.55;;;1.50;99.90;;;;;;4979184;28;20035;-90
2021/04/23 02:37:54;;;;;;;5.00;2.13;;;1.50;99.90;;;;;;4970839;28;20143;-90
2021/04/23 02:40:24;;;;;;;3.15;2.00;;;1.50;99.90;;;;;;4970148;28;20034;-91
2021/04/23 02:42:56;;;;;;;7.05;2.20;;;1.50;99.90;;;;;;4954229;28;20038;-90
2021/04/23 02:45:26;;;;;;;5.38;2.40;;;1.50;99.90;;;;;;4971562;28;20038;-90
2021/04/23 02:47:52;;;;;;;4.22;2.03;;;1.40;99.90;;;;;;4985977;28;20031;-90
2021/04/23 02:50:22;;;;;;;3.85;2.03;;;1.40;99.90;;;;;;4972796;28;20038;-91
2021/04/23 02:52:48;;;;;;;8.40;1.80;;;1.40;99.90;;;;;;4970571;28;20070;-90
2021/04/23 02:55:16;;;;;;;8.85;2.25;;;1.30;99.90;;;;;;4971829;28;20090;-90
2021/04/23 02:58:04;;;;;;;7.32;2.20;;;1.20;99.90;;;;;;4971419;28;20038;-90
2021/04/23 03:00:33;;;;;;;4.47;2.00;;;1.20;99.90;;;;;;4970171;28;20115;-89
2021/04/23 03:03:02;;;;;;;3.75;1.95;;;1.30;99.90;;;;;;4966680;28;20046;-90
2021/04/23 03:05:27;;;;;;;3.80;2.10;;;1.20;99.90;;;;;;4971855;28;20015;-90
2021/04/23 03:07:57;;;;;;;6.10;2.00;;;1.20;99.90;;;;;;4970015;28;20030;-90
2021/04/23 03:10:25;;;;;;;3.75;2.30;;;1.10;99.90;;;;;;4973563;28;20101;-90
2021/04/23 03:12:56;;;;;;;6.70;2.80;;;1.00;99.90;;;;;;4987041;28;20053;-90
2021/04/23 03:15:25;;;;;;;7.82;3.42;;;1.10;99.90;;;;;;4969953;28;20584;-90
2021/04/23 03:17:54;;;;;;;11.48;3.75;;;1.00;99.90;;;;;;4986083;28;20030;-89
2021/04/23 03:20:22;;;;;;;8.73;3.88;;;1.00;99.90;;;;;;4985885;28;20035;-90
2021/04/23 03:22:48;;;;;;;8.30;3.40;;;1.00;99.90;;;;;;4967219;28;20028;-88
2021/04/23 03:25:14;;;;;;;7.10;3.53;;;1.00;99.90;;;;;;4972546;28;20484;-89
2021/04/23 03:27:41;;;;;;;8.82;3.22;;;1.00;99.90;;;;;;4989347;28;20122;-89
2021/04/23 03:30:11;;;;;;;9.63;3.28;;;1.00;99.90;;;;;;4995262;28;20123;-89
2021/04/23 03:32:37;;;;;;;7.10;3.60;;;1.00;99.90;;;;;;4966587;28;20050;-90
2021/04/23 03:35:03;;;;;;;8.98;3.33;;;1.00;99.90;;;;;;4977400;28;20031;-90
2021/04/23 03:37:32;;;;;;;5.93;3.53;;;0.90;99.90;;;;;;4980401;28;20034;-88
2021/04/23 03:39:58;;;;;;;7.38;3.63;;;0.90;99.90;;;;;;4995996;28;20524;-90
2021/04/23 03:42:24;;;;;;;9.57;3.72;;;0.90;99.90;;;;;;4989537;28;20035;-90
2021/04/23 03:44:49;;;;;;;5.65;3.03;;;0.80;99.90;;;;;;4987699;28;20118;-89
2021/04/23 03:47:15;;;;;;;8.68;3.35;;;0.90;99.90;;;;;;4958272;28;20550;-90
2021/04/23 03:49:41;;;;;;;5.13;2.90;;;0.80;99.90;;;;;;4973299;28;20035;-90
2021/04/23 03:52:07;;;;;;;6.95;2.28;;;0.80;99.90;;;;;;4987539;28;20066;-89
2021/04/23 03:54:32;;;;;;;7.78;2.40;;;0.70;99.90;;;;;;4971201;28;20042;-90
2021/04/23 03:56:58;;;;;;;5.90;2.40;;;0.70;99.90;;;;;;4978618;28;20448;-90
2021/04/23 03:59:24;;;;;;;6.75;2.20;;;0.70;99.90;;;;;;4970970;28;20035;-90
2021/04/23 04:02:07;;;;;;;6.95;3.03;;;0.70;99.90;;;;;;4984477;28;20035;-90
2021/04/23 04:04:34;;;;;;;8.38;2.88;;;0.60;99.90;;;;;;4974390;28;20066;-89
2021/04/23 04:06:59;;;;;;;5.10;2.80;;;0.60;99.90;;;;;;4990224;28;20030;-90
2021/04/23 04:09:25;;;;;;;7.53;2.72;;;0.60;99.90;;;;;;4986738;28;20038;-89
2021/04/23 04:11:51;;;;;;;7.63;2.55;;;0.60;99.90;;;;;;4972969;28;20047;-90
2021/04/23 04:14:17;;;;;;;6.47;2.42;;;0.60;99.90;;;;;;4997620;28;20039;-90
2021/04/23 04:16:42;;;;;;;7.85;2.42;;;0.60;99.90;;;;;;4973485;28;20023;-89
2021/04/23 04:19:09;;;;;;;4.10;2.33;;;0.60;99.90;;;;;;4973877;28;20070;-90
2021/04/23 04:21:35;;;;;;;6.75;2.55;;;0.60;99.90;;;;;;4989610;28;20059;-90
2021/04/23 04:24:00;;;;;;;6.80;2.40;;;0.60;99.90;;;;;;4973964;28;20031;-90
2021/04/23 04:26:26;;;;;;;5.63;2.25;;;0.60;99.90;;;;;;4974146;28;20057;-91
2021/04/23 04:28:52;;;;;;;5.65;2.33;;;0.60;99.90;;;;;;4986189;28;20054;-90
2021/04/23 04:31:18;;;;;;;7.60;2.40;;;0.60;99.90;;;;;;4973751;28;20516;-89
2021/04/23 04:33:44;;;;;;;6.70;2.38;;;0.70;99.90;;;;;;4975224;28;20026;-90
2021/04/23 04:36:10;;;;;;;3.75;1.77;;;0.70;99.90;;;;;;4990655;28;20041;-90
2021/04/23 04:38:36;;;;;;;4.45;2.33;;;0.70;99.90;;;;;;4951902;28;20501;-90
2021/04/23 04:41:03;;;;;;;5.70;2.58;;;0.70;99.90;;;;;;4972609;28;20125;-90
2021/04/23 04:43:28;;;;;;;5.28;2.10;;;0.70;99.90;;;;;;4969217;28;20034;-89
2021/04/23 04:45:54;;;;;;;4.43;2.30;;;0.70;99.90;;;;;;4973630;28;20035;-90
2021/04/23 04:48:20;;;;;;;2.97;2.00;;;0.70;99.90;;;;;;4987335;28;20035;-89
2021/04/23 04:50:49;;;;;;;7.43;2.00;;;0.70;99.90;;;;;;4972773;28;20039;-90
2021/04/23 04:53:16;;;;;;;4.50;2.33;;;0.80;99.90;;;;;;4972776;28;20644;-91
2021/04/23 04:55:44;;;;;;;6.15;2.17;;;0.80;99.90;;;;;;4969885;28;20062;-89
2021/04/23 04:58:13;;;;;;;8.27;3.33;;;0.90;99.90;;;;;;4981017;28;20429;-90
2021/04/23 05:00:41;;;;;;;4.43;2.13;;;0.90;99.90;;;;;;4988266;28;20474;-90
2021/04/23 05:03:07;;;;;;;5.40;2.22;;;1.00;99.90;;;;;;4971639;28;20030;-90
2021/04/23 05:05:33;;;;;;;5.18;2.45;;;1.00;99.90;;;;;;4961571;28;20037;-88
2021/04/23 05:08:00;;;;;;;5.70;2.30;;;1.10;99.90;;;;;;4967713;28;20031;-90
2021/04/23 05:10:26;;;;;;;4.95;2.67;;;1.20;99.90;;;;;;4969882;28;20069;-90
2021/04/23 05:12:52;;;;;;;3.67;2.15;;;1.20;99.90;;;;;;4983828;28;20031;-91
2021/04/23 05:15:18;;;;;;;8.65;3.38;;;1.30;99.90;;;;;;4970770;28;20671;-90
2021/04/23 05:17:45;;;;;;;5.60;2.70;;;1.40;99.90;;;;;;4988261;28;20521;-89
2021/04/23 05:20:12;;;;;;;5.25;2.05;;;1.50;99.90;;;;;;4971373;28;20031;-91
2021/04/23 05:22:38;;;;;;;6.60;2.55;;;1.60;99.90;;;;;;4974936;28;20046;-91
2021/04/23 05:25:06;;;;;;;7.82;2.47;;;1.70;99.90;;;;;;4988912;28;20035;-90
2021/04/23 05:27:32;;;;;;;3.88;2.08;;;1.80;99.90;;;;;;4970731;28;20039;-90
2021/04/23 05:29:59;;;;;;;5.22;2.08;;;1.90;99.90;;;;;;4972997;28;20038;-91
2021/04/23 05:32:24;;;;;;;5.65;2.30;;;2.00;99.90;;;;;;4971464;28;20081;-91
2021/04/23 05:34:50;;;;;;;4.80;2.10;;;2.20;99.90;;;;;;4985831;28;20031;-90
2021/04/23 05:37:17;;;;;;;4.18;2.00;;;2.60;99.90;;;;;;4971472;28;20039;-90
2021/04/23 05:39:44;;;;;;;4.53;2.03;;;2.90;99.90;;;;;;4971926;28;20502;-91
2021/04/23 05:42:11;;;;;;;6.53;2.45;;;3.30;99.90;;;;;;5001480;28;20120;-90
2021/04/23 05:44:37;;;;;;;4.95;2.10;;;3.80;99.90;;;;;;4967135;28;20035;-91
2021/04/23 05:47:04;;;;;;;4.97;1.95;;;4.30;99.90;;;;;;4973471;28;20030;-91
2021/04/23 05:49:31;;;;;;;7.68;2.35;;;4.90;99.90;;;;;;4955929;28;20508;-91
2021/04/23 05:51:58;;;;;;;4.43;2.28;;;5.40;99.90;;;;;;4964614;28;20050;-90
2021/04/23 05:54:24;;;;;;;5.05;2.47;;;5.80;99.90;;;;;;4985017;28;20039;-90
2021/04/23 05:56:50;;;;;;;7.65;2.97;;;6.20;99.90;;;;;;4994940;28;20034;-90
2021/04/23 05:59:16;;;;;;;6.72;2.88;;;6.60;99.90;;;;;;4986209;28;20022;-90
2021/04/23 06:01:42;;;;;;;8.38;3.22;;;7.00;99.90;;;;;;4987088;28;20023;-89
2021/04/23 06:04:07;;;;;;;4.53;2.38;;;7.40;99.90;;;;;;4971148;28;20074;-90
2021/04/23 06:06:33;;;;;;;8.35;3.50;;;7.70;99.90;;;;;;4936959;28;20637;-90
2021/04/23 06:08:59;;;;;;;9.07;3.30;;;8.10;99.90;;;;;;4970025;28;20034;-91
2021/04/23 06:11:25;;;;;;;10.68;4.53;;;8.30;99.90;;;;;;4971239;28;20118;-90
2021/04/23 06:13:51;;;;;;;6.38;4.07;;;8.60;99.90;;;;;;4981290;28;20514;-90
2021/04/23 06:16:17;;;;;;;11.57;2.63;;;8.90;99.90;;;;;;4981117;28;20130;-90
2021/04/23 06:18:43;;;;;;;3.35;2.05;;;9.30;99.90;;;;;;4971987;28;20125;-90
2021/04/23 06:21:10;;;;;;;6.22;2.10;;;9.60;99.90;;;;;;4987017;28;20027;-90
2021/04/23 06:23:37;;;;;;;4.10;1.95;;;9.90;99.90;;;;;;4986820;28;20031;-90
2021/04/23 06:26:03;;;;;;;4.97;2.53;;;10.20;99.90;;;;;;4971307;28;20034;-90
2021/04/23 06:28:29;;;;;;;5.32;2.38;;;10.50;98.90;;;;;;4970085;28;20038;-89
2021/04/23 06:30:56;;;;;;;6.43;2.83;;;10.70;98.70;;;;;;4986756;28;20034;-89
2021/04/23 06:33:27;;;;;;;4.03;2.10;;;11.10;97.40;;;;;;4970922;28;20035;-89
2021/04/23 06:35:52;;;;;;;7.28;2.55;;;11.40;97.20;;;;;;4988000;28;20035;-90
2021/04/23 06:38:18;;;;;;;6.30;2.50;;;11.80;94.50;;;;;;4986043;28;20401;-90
2021/04/23 06:40:45;;;;;;;3.97;2.17;;;12.30;90.60;;;;;;4954454;28;20474;-90
2021/04/23 06:43:11;;;;;;;6.25;2.67;;;12.70;91.20;;;;;;4969570;28;20045;-90
2021/04/23 06:45:37;;;;;;;6.63;2.47;;;13.10;84.90;;;;;;4982989;28;20027;-90
2021/04/23 06:48:03;;;;;;;3.22;2.20;;;13.40;82.60;;;;;;4953642;28;20034;-90
2021/04/23 06:50:29;;;;;;;6.72;2.50;;;13.70;78.90;;;;;;4983569;28;20042;-89
2021/04/23 06:52:56;;;;;;;8.82;3.22;;;13.90;72.30;;;;;;4982071;28;20035;-89
2021/04/23 06:55:23;;;;;;;5.60;2.28;;;13.80;72.90;;;;;;4969130;28;20034;-89
2021/04/23 06:57:50;;;;;;;9.25;2.63;;;14.10;71.90;;;;;;4950930;28;20035;-89
2021/04/23 07:00:20;;;;;;;8.35;2.60;;;14.30;71.80;;;;;;4987001;28;20058;-89
2021/04/23 07:02:46;;;;;;;6.70;2.20;;;14.50;69.30;;;;;;4990529;28;20034;-89
2021/04/23 07:05:12;;;;;;;4.90;2.58;;;14.80;71.10;;;;;;4988946;28;20077;-89
2021/04/23 07:07:38;;;;;;;5.88;2.00;;;15.00;63.00;;;;;;4954925;28;20031;-90
2021/04/23 07:10:08;;;;;;;4.45;2.50;;;15.20;68.20;;;;;;4978980;28;20125;-90
2021/04/23 07:12:34;;;;;;;4.97;2.08;;;15.60;62.20;;;;;;4973799;28;20037;-89
2021/04/23 07:15:00;;;;;;;6.57;2.40;;;16.00;63.00;;;;;;4974756;28;20034;-90
2021/04/23 07:17:26;;;;;;;6.50;2.42;;;16.40;61.80;;;;;;4991083;28;20041;-90
2021/04/23 07:19:52;;;;;;;3.63;2.40;;;16.80;59.60;;;;;;4958094;28;20035;-90
2021/04/23 07:22:18;;;;;;;2.83;2.35;;;17.10;57.10;;;;;;4991391;28;20066;-91
2021/04/23 07:24:44;;;;;;;5.13;2.25;;;17.40;54.50;;;;;;4969272;28;20073;-90
2021/04/23 07:27:11;;;;;;;5.30;2.90;;;17.40;53.50;;;;;;4941249;28;20058;-90
2021/04/23 07:29:37;;;;;;;4.88;2.38;;;16.80;52.90;;;;;;4988849;28;20041;-90
2021/04/23 07:32:04;;;;;;;5.38;2.90;;;16.20;56.20;;;;;;4992852;28;20050;-91
2021/04/23 07:34:31;;;;;;;11.85;3.40;;;15.30;55.80;;;;;;4979781;28;20046;-89
2021/04/23 07:36:57;;;;;;;6.93;2.80;;;14.90;57.60;;;;;;4973029;28;20408;-90
2021/04/23 07:39:26;;;;;;;6.88;2.88;;;15.10;59.90;;;;;;4976325;28;20038;-90
2021/04/23 07:41:56;;;;;;;8.13;2.90;;;15.50;60.80;;;;;;4992185;28;20413;-90
2021/04/23 07:44:23;;;;;;;7.95;2.50;;;16.10;57.00;;;;;;4974532;28;20038;-90
2021/04/23 07:46:50;;;;;;;5.50;1.95;;;16.70;55.30;;;;;;4973512;28;20049;-89
2021/04/23 07:49:16;;;;;;;9.63;3.15;;;17.20;56.20;;;;;;4988308;28;20078;-90
2021/04/23 07:51:42;;;;;;;4.55;2.25;;;17.40;50.40;;;;;;4973351;28;20089;-90
2021/04/23 07:54:09;;;;;;;5.25;2.42;;;16.70;52.40;;;;;;4973970;28;20038;-91
2021/04/23 07:56:35;;;;;;;7.20;2.45;;;16.60;56.50;;;;;;4971585;28;20049;-90
2021/04/23 07:59:02;;;;;;;4.55;2.60;;;16.70;54.60;;;;;;4975622;28;20031;-89
2021/04/23 08:01:28;;;;;;;7.72;3.42;;;16.80;55.20;;;;;;4973997;28;20053;-89
2021/04/23 08:03:54;;;;;;;5.85;2.35;;;16.50;51.80;;;;;;4959011;29;20562;-88
2021/04/23 08:06:20;;;;;;;8.25;2.90;;;15.80;54.60;;;;;;4982581;28;20026;-89
2021/04/23 08:08:46;;;;;;;6.82;3.00;;;15.40;55.90;;;;;;4996208;28;20039;-89
2021/04/23 08:11:12;;;;;;;4.43;3.08;;;15.20;56.20;;;;;;4995470;28;20030;-90
2021/04/23 08:13:38;;;;;;;6.93;2.95;;;15.10;56.50;;;;;;4992422;28;20031;-88
2021/04/23 08:16:04;;;;;;;8.90;3.00;;;14.90;57.80;;;;;;4974792;28;20039;-88
2021/04/23 08:18:34;;;;;;;6.28;2.60;;;14.80;58.00;;;;;;4960822;28;20035;-88
2021/04/23 08:21:01;;;;;;;7.32;2.80;;;14.90;59.90;;;;;;4979091;28;20047;-88
2021/04/23 08:23:27;;;;;;;5.07;3.00;;;15.20;56.70;;;;;;4973369;28;20461;-89
2021/04/23 08:25:56;;;;;;;8.45;3.03;;;15.40;56.50;;;;;;4989385;28;20031;-88
2021/04/23 08:28:45;;;;;;;5.85;3.00;;;15.40;56.40;;;;;;4977423;28;20033;-90
2021/04/23 08:31:11;;;;;;;3.97;2.70;;;15.40;56.20;;;;;;4970200;28;20038;-87
2021/04/23 08:33:37;;;;;;;5.63;3.15;;;15.30;58.10;;;;;;4980662;28;20045;-88
2021/04/23 08:36:04;;;;;;;7.82;2.70;;;15.00;55.00;;;;;;4979162;28;20035;-89
2021/04/23 08:38:30;;;;;;;6.65;3.05;;;14.50;57.50;;;;;;4976537;28;20043;-88
2021/04/23 08:40:57;;;;;;;5.47;2.28;;;14.20;59.00;;;;;;4974297;28;20045;-87
2021/04/23 08:43:25;;;;;;;7.03;2.90;;;14.10;59.60;;;;;;4974450;28;20027;-88
2021/04/23 08:45:50;;;;;;;5.35;3.15;;;14.00;63.50;;;;;;4981457;28;20035;-93
2021/04/23 08:48:17;;;;;;;6.38;3.75;;;13.90;58.60;;;;;;4978721;28;20508;-90
2021/04/23 08:50:44;;;;;;;9.70;3.47;;;13.40;59.10;;;;;;4972115;28;20023;-88
2021/04/23 08:53:11;;;;;;;8.35;3.00;;;13.00;60.10;;;;;;4982345;28;20034;-88
2021/04/23 08:55:37;;;;;;;10.27;3.25;;;12.50;62.70;;;;;;4959863;28;20035;-88
2021/04/23 08:58:04;;;;;;;3.72;2.47;;;12.30;65.40;;;;;;4976154;28;20074;-89
2021/04/23 09:00:30;;;;;;;12.23;3.08;;;12.20;65.60;;;;;;4992157;28;20383;-88
2021/04/23 09:02:56;;;;;;;6.40;3.03;;;12.30;65.90;;;;;;4992494;28;20540;-89
2021/04/23 09:05:22;;;;;;;8.90;3.55;;;12.30;65.10;;;;;;4977806;28;20031;-88
2021/04/23 09:08:05;;;;;;;6.20;3.05;;;12.30;66.60;;;;;;4972082;28;20019;-88
2021/04/23 09:10:33;;;;;;;7.78;3.58;;;12.30;67.20;;;;;;4976478;28;20062;-88
2021/04/23 09:13:13;;;;;;;9.07;3.20;;;12.20;67.80;;;;;;4951960;28;20042;-88
2021/04/23 09:15:43;;;;;;;5.20;2.53;;;12.20;65.90;;;;;;4995541;28;20089;-88
2021/04/23 09:18:17;;;;;;;6.95;2.78;;;12.20;63.40;;;;;;4981889;28;20031;-89
2021/04/23 09:20:47;;;;;;;8.43;3.30;;;12.10;65.90;;;;;;4984639;28;20042;-88
2021/04/23 09:23:18;;;;;;;6.00;3.10;;;12.20;69.00;;;;;;4994242;28;20038;-87
2021/04/23 09:25:58;;;;;;;7.35;3.53;;;12.10;60.90;;;;;;4992500;28;20070;-87
2021/04/23 09:28:35;;;;;;;10.70;2.90;;;12.00;65.60;;;;;;4972220;28;20023;-88
2021/04/23 09:31:26;;;;;;;7.93;2.88;;;11.90;63.20;;;;;;4978539;28;20031;-89
2021/04/23 09:34:04;;;;;;;8.10;2.78;;;11.90;64.50;;;;;;4988180;28;20081;-88
2021/04/23 09:36:46;;;;;;;4.80;2.60;;;12.00;65.90;;;;;;4974021;28;20061;-89
2021/04/23 09:39:14;;;;;;;7.15;2.75;;;12.00;65.60;;;;;;4976741;28;20038;-89
2021/04/23 09:41:44;;;;;;;3.97;2.45;;;12.00;65.80;;;;;;4993004;28;20035;-89
2021/04/23 09:44:29;;;;;;;4.20;2.45;;;12.10;66.60;;;;;;4960369;28;20053;-91
2021/04/23 09:47:24;;;;;;;7.57;2.60;;;12.20;67.70;;;;;;4992988;28;20474;-92
2021/04/23 09:49:59;;;;;;;5.25;2.35;;;12.40;62.00;;;;;;4947424;28;20039;-92
2021/04/23 09:52:27;;;;;;;6.95;2.45;;;12.40;62.00;;;;;;4994140;28;20035;-91
2021/04/23 09:54:54;;;;;;;5.72;2.50;;;12.30;65.90;;;;;;4979326;28;20031;-91
2021/04/23 09:57:39;;;;;;;3.30;2.17;;;12.30;63.80;;;;;;4981706;28;20042;-92
2021/04/23 10:00:11;;;;;;;4.93;2.63;;;12.30;63.30;;;;;;4998692;28;20039;-92
2021/04/23 10:02:37;;;;;;;3.97;2.10;;;12.30;60.90;;;;;;5007162;28;20113;-92
2021/04/23 10:05:04;;;;;;;6.53;2.50;;;12.30;60.80;;;;;;5005753;28;20034;-93
2021/04/23 10:07:34;;;;;;;3.97;2.45;;;12.40;63.60;;;;;;4996687;28;20466;-91
2021/04/23 10:10:15;;;;;;;4.50;2.65;;;12.40;59.90;;;;;;4991117;28;20498;-92
2021/04/23 10:12:53;;;;;;;6.25;2.50;;;12.40;60.40;;;;;;4990625;28;20055;-94
2021/04/23 10:15:23;;;;;;;3.85;2.42;;;12.20;60.90;;;;;;4981635;28;20090;-94
2021/04/23 10:18:12;;;;;;;4.38;2.50;;;12.20;59.60;;;;;;4978907;28;20107;-91
2021/04/23 10:20:48;;;;;;;5.50;2.00;;;12.30;57.00;;;;;;4979725;28;20437;-88
2021/04/23 10:23:19;;;;;;;3.95;2.70;;;12.30;59.60;;;;;;4974725;28;20035;-90
2021/04/23 10:25:46;;;;;;;6.38;2.15;;;12.30;63.40;;;;;;4972975;28;20121;-89
2021/04/23 10:28:17;;;;;;;5.53;2.35;;;12.40;61.80;;;;;;4996205;28;20837;-88
2021/04/23 10:30:46;;;;;;;4.13;1.60;;;12.50;56.20;;;;;;4971532;28;20073;-89
2021/04/23 10:33:17;;;;;;;6.50;2.78;;;12.40;56.60;;;;;;4973386;28;20066;-90
2021/04/23 10:35:48;;;;;;;4.40;2.03;;;12.40;58.90;;;;;;4992611;28;20031;-92
2021/04/23 10:38:17;;;;;;;4.10;2.08;;;12.40;56.10;;;;;;4973214;28;20038;-90
2021/04/23 10:40:51;;;;;;;4.90;1.90;;;12.30;57.90;;;;;;4972685;28;20470;-89
2021/04/23 10:43:18;;;;;;;3.10;2.03;;;12.30;62.00;;;;;;4969739;28;20035;-88
2021/04/23 10:46:11;;;;;;;5.72;1.67;;;12.40;58.80;;;;;;4974389;28;20035;-89
2021/04/23 10:48:48;;;;;;;4.90;2.20;;;12.50;59.00;;;;;;4973479;28;20043;-89
2021/04/23 10:51:19;;;;;;;3.13;1.55;;;12.60;57.40;;;;;;4989982;28;20046;-91
2021/04/23 10:53:51;;;;;;;6.70;2.03;;;12.70;58.50;;;;;;4988182;28;20109;-88
2021/04/23 10:56:19;;;;;;;3.53;1.60;;;12.80;55.60;;;;;;4954710;28;20233;-88
2021/04/23 10:58:46;;;;;;;4.63;1.92;;;12.90;55.00;;;;;;4988922;28;20045;-87
2021/04/23 11:01:22;;;;;;;2.38;1.40;;;12.90;54.20;;;;;;4988745;28;20065;-88
2021/04/23 11:04:06;;;;;;;5.07;1.63;;;12.90;54.50;;;;;;4987195;28;20122;-89
2021/04/23 11:06:38;;;;;;;3.58;1.80;;;12.90;54.40;;;;;;4971918;28;20583;-88
2021/04/23 11:09:11;;;;;;;2.97;1.80;;;13.10;54.70;;;;;;4957427;28;20122;-89
2021/04/23 11:11:39;;;;;;;3.70;1.58;;;13.20;54.80;;;;;;4984605;28;20035;-90
2021/04/23 11:14:42;;;;;;;2.38;1.75;;;13.30;57.60;;;;;;4962450;28;20058;-89
2021/04/23 11:17:32;;;;;;;2.53;1.52;;;13.30;57.10;;;;;;4969243;28;20039;-89
2021/04/23 11:19:58;;;;;;;2.75;1.63;;;13.50;55.80;;;;;;4965079;28;20066;-88
2021/04/23 11:22:30;;;;;;;2.53;1.50;;;13.60;52.60;;;;;;4962927;28;20027;-88
2021/04/23 11:25:18;;;;;;;3.65;1.45;;;13.70;56.00;;;;;;4965946;28;20038;-89
2021/04/23 11:28:02;;;;;;;3.08;1.70;;;13.80;53.60;;;;;;4968033;28;20393;-89
2021/04/23 11:30:49;;;;;;;3.22;1.90;;;13.90;55.90;;;;;;4982660;28;20015;-89
2021/04/23 11:33:34;;;;;;;4.00;1.80;;;14.00;55.50;;;;;;4939663;28;20061;-90
2021/04/23 11:36:23;;;;;;;2.42;1.13;;;14.10;55.10;;;;;;4982781;28;20035;-89
2021/04/23 11:39:04;;;;;;;3.67;1.55;;;14.10;52.80;;;;;;4984112;28;20031;-89
2021/04/23 11:41:30;;;;;;;2.80;1.20;;;14.10;51.60;;;;;;4968485;28;20530;-89
2021/04/23 11:43:55;;;;;;;3.22;1.20;;;14.10;53.30;;;;;;4962013;28;20139;-90
2021/04/23 11:46:49;;;;;;;3.95;1.40;;;14.20;53.50;;;;;;4918787;29;20071;-89
2021/04/23 11:49:15;;;;;;;3.42;1.30;;;14.30;51.10;;;;;;4953995;28;20050;-90
2021/04/23 11:51:52;;;;;;;2.22;1.33;;;14.40;51.30;;;;;;4980498;28;20725;-89
2021/04/23 11:54:36;;;;;;;1.67;1.20;;;14.70;52.00;;;;;;4986690;28;20122;-88
2021/04/23 11:57:05;;;;;;;2.03;1.23;;;15.00;46.80;;;;;;4975556;28;20108;-87
2021/04/23 11:59:31;;;;;;;2.60;1.63;;;15.40;48.90;;;;;;4990978;28;20022;-87
2021/04/23 12:01:57;;;;;;;3.20;1.15;;;15.60;49.60;;;;;;4986372;28;20523;-88
2021/04/23 12:04:46;;;;;;;5.15;1.27;;;15.90;46.30;;;;;;4983255;28;20027;-88
2021/04/23 12:07:13;;;;;;;3.72;1.65;;;16.00;44.80;;;;;;4975335;28;20066;-88
2021/04/23 12:09:41;;;;;;;1.60;1.15;;;15.80;47.50;;;;;;4986336;28;20425;-89
2021/04/23 12:12:09;;;;;;;3.70;1.48;;;16.00;49.90;;;;;;4972739;28;20493;-89
2021/04/23 12:14:43;;;;;;;5.32;1.33;;;16.10;46.80;;;;;;4980889;28;20058;-87
2021/04/23 12:17:11;;;;;;;5.15;1.40;;;16.20;46.10;;;;;;4989220;28;20034;-92
2021/04/23 12:19:37;;;;;;;3.63;1.25;;;16.40;48.50;;;;;;4967881;28;20062;-89
2021/04/23 12:22:03;;;;;;;3.33;1.50;;;16.60;47.00;;;;;;4972430;28;20034;-88
2021/04/23 12:24:29;;;;;;;3.22;1.75;;;16.60;46.50;;;;;;4975861;28;20034;-89
2021/04/23 12:26:54;;;;;;;2.00;1.20;;;16.80;43.80;;;;;;4986549;28;20027;-90
2021/04/23 12:29:25;;;;;;;2.95;1.20;;;16.60;41.90;;;;;;4972159;28;20027;-88
2021/04/23 12:31:52;;;;;;;2.15;1.35;;;16.80;44.70;;;;;;4959858;28;20035;-91
2021/04/23 12:34:18;;;;;;;2.40;1.27;;;16.90;45.80;;;;;;4972986;28;20053;-88
2021/04/23 12:36:52;;;;;;;1.60;1.20;;;17.10;44.40;;;;;;4970431;28;20118;-89
2021/04/23 12:39:22;;;;;;;1.27;0.85;;;17.30;43.20;;;;;;4976620;28;20394;-89
2021/04/23 12:41:53;;;;;;;2.30;1.15;;;17.40;41.80;;;;;;4988201;28;20031;-89
2021/04/23 12:44:25;;;;;;;1.15;1.00;;;17.60;42.80;;;;;;4975144;28;20070;-87
2021/04/23 12:46:55;;;;;;;1.70;1.00;;;17.70;38.90;;;;;;4972392;28;20489;-91
2021/04/23 12:49:25;;;;;;;5.65;1.27;;;17.70;41.90;;;;;;5004160;28;20022;-89
2021/04/23 12:51:58;;;;;;;2.95;1.40;;;18.00;44.90;;;;;;4976046;28;20034;-89
2021/04/23 12:54:32;;;;;;;3.55;1.73;;;18.30;42.40;;;;;;4974572;28;20038;-91
2021/04/23 12:57:01;;;;;;;4.43;1.35;;;18.50;39.00;;;;;;4973462;28;20034;-89
2021/04/23 12:59:38;;;;;;;2.90;1.85;;;18.60;40.50;;;;;;4978167;28;20027;-89
2021/04/23 13:02:06;;;;;;;4.57;1.23;;;18.90;35.50;;;;;;4972184;28;20035;-90
2021/04/23 13:04:32;;;;;;;2.80;1.35;;;18.80;38.90;;;;;;4970399;28;20027;-91